Clinton, Utah
Current Conditions -  °F | °C
As of 10:58 PM on Saturday 20 Dec 2014 (Local Time) from KHIF Reporting Station
Broken Clouds Broken Clouds  
Wind Chill: 32°   Ceiling: 3200
Heat Index: 38°   Visibility: 10mi
Dew Point: 36°   Wind: 8mph
Humidity: 90%   Direction: 170°S
Pressure: 30.05"   Gusts: NA
Location:  41.123°N, 112.063°W
Report Text: KHIF 210558Z AUTO 17007KT 10SM BKN032 BKN110 04/02 A3005 RMK AO2 UPB07E31 SLP172 P0000 60000 T00350020 10037 20031 58002
Loading
Personal Weather Stations






























Interactive Weather Map New forecast layout! Learn more

10-Day Weather Forecast

Advertisements
Track Severe Weather on mobile